This is the latest recevied weather packets stored in our database for station/object PP5EO-2. If no packets are shown the sender has not sent any weather packets the latest 1 day(s).
| Time | Temp. | Humidity | Pressure | Rain* | Wind** | Luminosity | Snow |
|---|---|---|---|---|---|---|---|
| 1778118096 | 22.78° C | 93% | 1015.9 hPa | - | - | - | - |
| 1778116312 | 22.78° C | 94% | 1016.1 hPa | - | - | - | - |
| 1778115120 | 22.78° C | 93% | 1016.2 hPa | - | - | - | - |
| 1778114526 | 22.78° C | 93% | 1016.4 hPa | - | - | - | - |
| 1778113931 | 22.78° C | 92% | 1016.5 hPa | - | - | - | - |
| 1778113335 | 22.78° C | 92% | 1016.5 hPa | - | - | - | - |
| 1778111550 | 22.78° C | 90% | 1016.6 hPa | - | - | - | - |
| 1778110360 | 23.33° C | 88% | 1016.4 hPa | - | - | - | - |
| 1778109765 | 23.33° C | 88% | 1016.3 hPa | - | - | - | - |
| 1778104411 | 23.33° C | 86% | 1015.7 hPa | - | - | - | - |
| 1778102030 | 23.33° C | 86% | 1015.5 hPa | - | - | - | - |
| 1778099057 | 24.44° C | 83% | 1015.1 hPa | - | - | - | - |
| 1778098461 | 24.44° C | 81% | 1015.1 hPa | - | - | - | - |
| 1778097865 | 25° C | 79% | 1015.2 hPa | - | - | - | - |
| 1778097270 | 25° C | 79% | 1015.2 hPa | - | - | - | - |
| 1778096080 | 25.56° C | 77% | 1015.2 hPa | - | - | - | - |
| 1778094296 | 26.67° C | 72% | 1015.3 hPa | - | - | - | - |
| 1778093701 | 26.67° C | 71% | 1015.4 hPa | - | - | - | - |
| 1778093105 | 27.78° C | 68% | 1015.5 hPa | - | - | - | - |
| 1778091321 | 28.33° C | 65% | 1015.7 hPa | - | - | - | - |
| 1778088345 | 28.89° C | 62% | 1016.1 hPa | - | - | - | - |
| 1778087755 | 30° C | 57% | 1016.2 hPa | - | - | - | - |
| 1778087155 | 30° C | 57% | 1016.4 hPa | - | - | - | - |
| 1778086561 | 28.89° C | 60% | 1016.5 hPa | - | - | - | - |
| 1778080611 | 28.89° C | 60% | 1018.5 hPa | - | - | - | - |
* Rain since midnight (hover to see other rain measurements)
** Current wind speed in m/s (hover to see current wind gust speed)